Aviation Digital Data Service (ADDS)

Output produced by METARs form (0327 UTC 19 August 2019)
found at http://www.aviationweather.gov/metar/data/
 
METAR text: CYLW 190300Z AUTO VRB08KT 9SM CLR 26/03 A2968 RMK SLP046 DENSITY ALT 3200FT
Conditions at: CYLW (KELOWNA APT , BC, CA) observed 0300 UTC 19 August 2019
Temperature: 26.0°C (79°F)
Dewpoint: 3.0°C (37°F) [RH = 23%]
Pressure (altimeter): 29.68 inches Hg (1005.2 mb)
[Sea-level pressure: 1004.6 mb]
Winds: variable direction winds at 9 MPH (8 knots; 4.1 m/s)
Visibility: 9 miles (14 km)
Ceiling: at least 12,000 feet AGL
Clouds: sky clear below 12,000 feet AGL
Weather: no significant weather observed at this time

METAR text: CYLW 190200Z AUTO 24007G15KT 220V330 9SM CLR 29/00 A2965 RMK SLP037 DENSITY ALT 3600FT
Conditions at: CYLW (KELOWNA APT , BC, CA) observed 0200 UTC 19 August 2019
Temperature: 29.0°C (84°F)
Dewpoint: 0.0°C (32°F) [RH = 15%]
Pressure (altimeter): 29.65 inches Hg (1004.1 mb)
[Sea-level pressure: 1003.7 mb]
Winds: from the WSW (240 degrees) at 8 MPH (7 knots; 3.6 m/s)
gusting to 17 MPH (15 knots; 7.7 m/s)
Visibility: 9 miles (14 km)
Ceiling: at least 12,000 feet AGL
Clouds: sky clear below 12,000 feet AGL
Weather: no significant weather observed at this time

METAR text: CYLW 190115Z AUTO 26015G21KT 210V280 9SM CLR 30/00 A2964 RMK SLP032 DENSITY ALT 3700FT
Conditions at: CYLW (KELOWNA APT , BC, CA) observed 0115 UTC 19 August 2019
Temperature: 30.0°C (86°F)
Dewpoint: 0.0°C (32°F) [RH = 14%]
Pressure (altimeter): 29.64 inches Hg (1003.8 mb)
[Sea-level pressure: 1003.2 mb]
Winds: from the W (260 degrees) at 17 MPH (15 knots; 7.7 m/s)
gusting to 24 MPH (21 knots; 10.8 m/s)
Visibility: 9 miles (14 km)
Ceiling: at least 12,000 feet AGL
Clouds: sky clear below 12,000 feet AGL
Weather: no significant weather observed at this time

METAR text: CYLW 190105Z AUTO 27012G20KT 210V280 2 1/4SM CLR 30/00 A2964 RMK PCPN MISG SLP033 DENSITY ALT 3700FT
Conditions at: CYLW (KELOWNA APT , BC, CA) observed 0105 UTC 19 August 2019
Temperature: 30.0°C (86°F)
Dewpoint: 0.0°C (32°F) [RH = 14%]
Pressure (altimeter): 29.64 inches Hg (1003.8 mb)
[Sea-level pressure: 1003.3 mb]
Winds: from the W (270 degrees) at 14 MPH (12 knots; 6.2 m/s)
gusting to 23 MPH (20 knots; 10.3 m/s)
Visibility: 2.25 miles (3.62 km)
Ceiling: at least 12,000 feet AGL
Clouds: sky clear below 12,000 feet AGL
Weather: no significant weather observed at this time

METAR text: CYLW 190103Z AUTO 26015G20KT 210V280 2 1/2SM HZ CLR 30/04 A2964 RMK SLP032 DENSITY ALT 3800FT
Conditions at: CYLW (KELOWNA APT , BC, CA) observed 0103 UTC 19 August 2019
Temperature: 30.0°C (86°F)
Dewpoint: 4.0°C (39°F) [RH = 19%]
Pressure (altimeter): 29.64 inches Hg (1003.8 mb)
[Sea-level pressure: 1003.2 mb]
Winds: from the W (260 degrees) at 17 MPH (15 knots; 7.7 m/s)
gusting to 23 MPH (20 knots; 10.3 m/s)
Visibility: 2.50 miles (4.02 km)
Ceiling: at least 12,000 feet AGL
Clouds: sky clear below 12,000 feet AGL
Weather: HZ  (haze)

METAR text: CYLW 190102Z AUTO 26013G18KT 210V270 4SM HZ CLR 30/04 A2964 RMK SLP032 DENSITY ALT 3800FT
Conditions at: CYLW (KELOWNA APT , BC, CA) observed 0102 UTC 19 August 2019
Temperature: 30.0°C (86°F)
Dewpoint: 4.0°C (39°F) [RH = 19%]
Pressure (altimeter): 29.64 inches Hg (1003.8 mb)
[Sea-level pressure: 1003.2 mb]
Winds: from the W (260 degrees) at 15 MPH (13 knots; 6.7 m/s)
gusting to 21 MPH (18 knots; 9.3 m/s)
Visibility: 4 miles ( 6 km)
Ceiling: at least 12,000 feet AGL
Clouds: sky clear below 12,000 feet AGL
Weather: HZ  (haze)

METAR text: CYLW 190100Z AUTO 24013G18KT 8SM CLR 30/04 A2964 RMK SLP033 DENSITY ALT 3700FT
Conditions at: CYLW (KELOWNA APT , BC, CA) observed 0100 UTC 19 August 2019
Temperature: 30.0°C (86°F)
Dewpoint: 4.0°C (39°F) [RH = 19%]
Pressure (altimeter): 29.64 inches Hg (1003.8 mb)
[Sea-level pressure: 1003.3 mb]
Winds: from the WSW (240 degrees) at 15 MPH (13 knots; 6.7 m/s)
gusting to 21 MPH (18 knots; 9.3 m/s)
Visibility: 8 miles (13 km)
Ceiling: at least 12,000 feet AGL
Clouds: sky clear below 12,000 feet AGL
Weather: no significant weather observed at this time

METAR text: CYLW 190000Z AUTO VRB09KT 9SM FEW200 31/06 A2964 RMK SLP034 DENSITY ALT 3800FT
Conditions at: CYLW (KELOWNA APT , BC, CA) observed 0000 UTC 19 August 2019
Temperature: 31.0°C (88°F)
Dewpoint: 6.0°C (43°F) [RH = 21%]
Pressure (altimeter): 29.64 inches Hg (1003.8 mb)
[Sea-level pressure: 1003.4 mb]
Winds: variable direction winds at 10 MPH (9 knots; 4.6 m/s)
Visibility: 9 miles (14 km)
Ceiling: at least 12,000 feet AGL
Clouds: few clouds at 20000 feet AGL
Weather: no significant weather observed at this time

METAR text: CYLW 182300Z AUTO 14009KT 9SM CLR 29/06 A2966 RMK SLP038 DENSITY ALT 3600FT
Conditions at: CYLW (KELOWNA APT , BC, CA) observed 2300 UTC 18 August 2019
Temperature: 29.0°C (84°F)
Dewpoint: 6.0°C (43°F) [RH = 23%]
Pressure (altimeter): 29.66 inches Hg (1004.5 mb)
[Sea-level pressure: 1003.8 mb]
Winds: from the SE (140 degrees) at 10 MPH (9 knots; 4.6 m/s)
Visibility: 9 miles (14 km)
Ceiling: at least 12,000 feet AGL
Clouds: sky clear below 12,000 feet AGL
Weather: no significant weather observed at this time

METAR text: CYLW 182200Z AUTO 15008KT 120V180 8SM CLR 28/09 A2968 RMK SLP046 DENSITY ALT 3500FT
Conditions at: CYLW (KELOWNA APT , BC, CA) observed 2200 UTC 18 August 2019
Temperature: 28.0°C (82°F)
Dewpoint: 9.0°C (48°F) [RH = 30%]
Pressure (altimeter): 29.68 inches Hg (1005.2 mb)
[Sea-level pressure: 1004.6 mb]
Winds: from the SSE (150 degrees) at 9 MPH (8 knots; 4.1 m/s)
Visibility: 8 miles (13 km)
Ceiling: at least 12,000 feet AGL
Clouds: sky clear below 12,000 feet AGL
Weather: no significant weather observed at this time

METAR text: CYLW 182150Z AUTO 15003KT 060V230 7SM CLR 28/09 A2969 RMK SLP049 DENSITY ALT 3400FT
Conditions at: CYLW (KELOWNA APT , BC, CA) observed 2150 UTC 18 August 2019
Temperature: 28.0°C (82°F)
Dewpoint: 9.0°C (48°F) [RH = 30%]
Pressure (altimeter): 29.69 inches Hg (1005.5 mb)
[Sea-level pressure: 1004.9 mb]
Winds: from the SSE (150 degrees) at 3 MPH (3 knots; 1.5 m/s)
Visibility: 7 miles (11 km)
Ceiling: at least 12,000 feet AGL
Clouds: sky clear below 12,000 feet AGL
Weather: no significant weather observed at this time

METAR text: CYLW 182140Z AUTO 16006KT 120V190 5SM HZ CLR 28/08 A2969 RMK SLP051 DENSITY ALT 3400FT
Conditions at: CYLW (KELOWNA APT , BC, CA) observed 2140 UTC 18 August 2019
Temperature: 28.0°C (82°F)
Dewpoint: 8.0°C (46°F) [RH = 28%]
Pressure (altimeter): 29.69 inches Hg (1005.5 mb)
[Sea-level pressure: 1005.1 mb]
Winds: from the SSE (160 degrees) at 7 MPH (6 knots; 3.1 m/s)
Visibility: 5 miles ( 8 km)
Ceiling: at least 12,000 feet AGL
Clouds: sky clear below 12,000 feet AGL
Weather: HZ  (haze)

METAR text: CYLW 182100Z AUTO 14007KT 110V180 9SM CLR 28/08 A2971 RMK SLP055 DENSITY ALT 3400FT
Conditions at: CYLW (KELOWNA APT , BC, CA) observed 2100 UTC 18 August 2019
Temperature: 28.0°C (82°F)
Dewpoint: 8.0°C (46°F) [RH = 28%]
Pressure (altimeter): 29.71 inches Hg (1006.2 mb)
[Sea-level pressure: 1005.5 mb]
Winds: from the SE (140 degrees) at 8 MPH (7 knots; 3.6 m/s)
Visibility: 9 miles (14 km)
Ceiling: at least 12,000 feet AGL
Clouds: sky clear below 12,000 feet AGL
Weather: no significant weather observed at this time

METAR text: CYLW 182038Z AUTO 18008KT 140V220 9SM CLR 27/08 A2972 RMK SLP059 DENSITY ALT 3300FT
Conditions at: CYLW (KELOWNA APT , BC, CA) observed 2038 UTC 18 August 2019
Temperature: 27.0°C (81°F)
Dewpoint: 8.0°C (46°F) [RH = 30%]
Pressure (altimeter): 29.72 inches Hg (1006.5 mb)
[Sea-level pressure: 1005.9 mb]
Winds: from the S (180 degrees) at 9 MPH (8 knots; 4.1 m/s)
Visibility: 9 miles (14 km)
Ceiling: at least 12,000 feet AGL
Clouds: sky clear below 12,000 feet AGL
Weather: no significant weather observed at this time

METAR text: CYLW 182000Z AUTO 13007KT 110V180 3SM HZ CLR 26/09 A2973 RMK SLP063 DENSITY ALT 3200FT
Conditions at: CYLW (KELOWNA APT , BC, CA) observed 2000 UTC 18 August 2019
Temperature: 26.0°C (79°F)
Dewpoint: 9.0°C (48°F) [RH = 34%]
Pressure (altimeter): 29.73 inches Hg (1006.9 mb)
[Sea-level pressure: 1006.3 mb]
Winds: from the SE (130 degrees) at 8 MPH (7 knots; 3.6 m/s)
Visibility: 3 miles ( 5 km)
Ceiling: at least 12,000 feet AGL
Clouds: sky clear below 12,000 feet AGL
Weather: HZ  (haze)

METAR text: CYLW 181956Z AUTO 16008KT 120V180 3SM HZ CLR 26/09 A2973 RMK SLP063 DENSITY ALT 3200FT
Conditions at: CYLW (KELOWNA APT , BC, CA) observed 1956 UTC 18 August 2019
Temperature: 26.0°C (79°F)
Dewpoint: 9.0°C (48°F) [RH = 34%]
Pressure (altimeter): 29.73 inches Hg (1006.9 mb)
[Sea-level pressure: 1006.3 mb]
Winds: from the SSE (160 degrees) at 9 MPH (8 knots; 4.1 m/s)
Visibility: 3 miles ( 5 km)
Ceiling: at least 12,000 feet AGL
Clouds: sky clear below 12,000 feet AGL
Weather: HZ  (haze)

METAR text: CYLW 181955Z AUTO 16008KT 120V180 2 1/2SM HZ CLR 26/09 A2973 RMK SLP063 DENSITY ALT 3200FT
Conditions at: CYLW (KELOWNA APT , BC, CA) observed 1955 UTC 18 August 2019
Temperature: 26.0°C (79°F)
Dewpoint: 9.0°C (48°F) [RH = 34%]
Pressure (altimeter): 29.73 inches Hg (1006.9 mb)
[Sea-level pressure: 1006.3 mb]
Winds: from the SSE (160 degrees) at 9 MPH (8 knots; 4.1 m/s)
Visibility: 2.50 miles (4.02 km)
Ceiling: at least 12,000 feet AGL
Clouds: sky clear below 12,000 feet AGL
Weather: HZ  (haze)

METAR text: CYLW 181953Z AUTO 16008KT 120V190 1 3/4SM HZ CLR 26/09 A2973 RMK SLP063 DENSITY ALT 3200FT
Conditions at: CYLW (KELOWNA APT , BC, CA) observed 1953 UTC 18 August 2019
Temperature: 26.0°C (79°F)
Dewpoint: 9.0°C (48°F) [RH = 34%]
Pressure (altimeter): 29.73 inches Hg (1006.9 mb)
[Sea-level pressure: 1006.3 mb]
Winds: from the SSE (160 degrees) at 9 MPH (8 knots; 4.1 m/s)
Visibility: 1.75 miles (2.82 km)
Ceiling: at least 12,000 feet AGL
Clouds: sky clear below 12,000 feet AGL
Weather: HZ  (haze)

METAR text: CYLW 181946Z AUTO 17007KT 120V210 1 1/2SM HZ CLR 26/08 A2973 RMK VIS VRB 3/4-3 SLP065 DENSITY ALT 3100FT
Conditions at: CYLW (KELOWNA APT , BC, CA) observed 1946 UTC 18 August 2019
Temperature: 26.0°C (79°F)
Dewpoint: 8.0°C (46°F) [RH = 32%]
Pressure (altimeter): 29.73 inches Hg (1006.9 mb)
[Sea-level pressure: 1006.5 mb]
Winds: from the S (170 degrees) at 8 MPH (7 knots; 3.6 m/s)
Visibility: 1.50 miles (2.41 km)
Ceiling: at least 12,000 feet AGL
Clouds: sky clear below 12,000 feet AGL
Weather: HZ  (haze)

METAR text: CYLW 181944Z AUTO 15007KT 110V210 2SM HZ CLR 26/09 A2973 RMK VIS VRB 3/4-3 SLP064 DENSITY ALT 3100FT
Conditions at: CYLW (KELOWNA APT , BC, CA) observed 1944 UTC 18 August 2019
Temperature: 26.0°C (79°F)
Dewpoint: 9.0°C (48°F) [RH = 34%]
Pressure (altimeter): 29.73 inches Hg (1006.9 mb)
[Sea-level pressure: 1006.4 mb]
Winds: from the SSE (150 degrees) at 8 MPH (7 knots; 3.6 m/s)
Visibility: 2.00 miles (3.22 km)
Ceiling: at least 12,000 feet AGL
Clouds: sky clear below 12,000 feet AGL
Weather: HZ  (haze)

METAR text: CYLW 181943Z AUTO 15008KT 110V210 2 1/2SM HZ CLR 26/09 A2973 RMK VIS VRB 1-3 SLP065 DENSITY ALT 3100FT
Conditions at: CYLW (KELOWNA APT , BC, CA) observed 1943 UTC 18 August 2019
Temperature: 26.0°C (79°F)
Dewpoint: 9.0°C (48°F) [RH = 34%]
Pressure (altimeter): 29.73 inches Hg (1006.9 mb)
[Sea-level pressure: 1006.5 mb]
Winds: from the SSE (150 degrees) at 9 MPH (8 knots; 4.1 m/s)
Visibility: 2.50 miles (4.02 km)
Ceiling: at least 12,000 feet AGL
Clouds: sky clear below 12,000 feet AGL
Weather: HZ  (haze)

METAR text: CYLW 181940Z AUTO 15005KT 110V210 4SM HZ CLR 26/09 A2973 RMK SLP064 DENSITY ALT 3200FT
Conditions at: CYLW (KELOWNA APT , BC, CA) observed 1940 UTC 18 August 2019
Temperature: 26.0°C (79°F)
Dewpoint: 9.0°C (48°F) [RH = 34%]
Pressure (altimeter): 29.73 inches Hg (1006.9 mb)
[Sea-level pressure: 1006.4 mb]
Winds: from the SSE (150 degrees) at 6 MPH (5 knots; 2.6 m/s)
Visibility: 4 miles ( 6 km)
Ceiling: at least 12,000 feet AGL
Clouds: sky clear below 12,000 feet AGL
Weather: HZ  (haze)

METAR text: CYLW 181914Z AUTO 10006KT 080V190 6SM HZ CLR 25/09 A2974 RMK SLP068 DENSITY ALT 3000FT
Conditions at: CYLW (KELOWNA APT , BC, CA) observed 1914 UTC 18 August 2019
Temperature: 25.0°C (77°F)
Dewpoint: 9.0°C (48°F) [RH = 36%]
Pressure (altimeter): 29.74 inches Hg (1007.2 mb)
[Sea-level pressure: 1006.8 mb]
Winds: from the E (100 degrees) at 7 MPH (6 knots; 3.1 m/s)
Visibility: 6 miles (10 km)
Ceiling: at least 12,000 feet AGL
Clouds: sky clear below 12,000 feet AGL
Weather: HZ  (haze)

METAR text: CYLW 181906Z AUTO 17007KT 110V190 5SM HZ CLR 25/08 A2975 RMK SLP069 DENSITY ALT 3100FT
Conditions at: CYLW (KELOWNA APT , BC, CA) observed 1906 UTC 18 August 2019
Temperature: 25.0°C (77°F)
Dewpoint: 8.0°C (46°F) [RH = 34%]
Pressure (altimeter): 29.75 inches Hg (1007.5 mb)
[Sea-level pressure: 1006.9 mb]
Winds: from the S (170 degrees) at 8 MPH (7 knots; 3.6 m/s)
Visibility: 5 miles ( 8 km)
Ceiling: at least 12,000 feet AGL
Clouds: sky clear below 12,000 feet AGL
Weather: HZ  (haze)

METAR text: CYLW 181900Z AUTO 16009KT 090V190 8SM CLR 25/08 A2975 RMK SLP070 DENSITY ALT 3000FT
Conditions at: CYLW (KELOWNA APT , BC, CA) observed 1900 UTC 18 August 2019
Temperature: 25.0°C (77°F)
Dewpoint: 8.0°C (46°F) [RH = 34%]
Pressure (altimeter): 29.75 inches Hg (1007.5 mb)
[Sea-level pressure: 1007.0 mb]
Winds: from the SSE (160 degrees) at 10 MPH (9 knots; 4.6 m/s)
Visibility: 8 miles (13 km)
Ceiling: at least 12,000 feet AGL
Clouds: sky clear below 12,000 feet AGL
Weather: no significant weather observed at this time

METAR text: CYLW 181800Z AUTO 17005KT 110V210 9SM CLR 23/09 A2977 RMK SLP076 DENSITY ALT 2800FT
Conditions at: CYLW (KELOWNA APT , BC, CA) observed 1800 UTC 18 August 2019
Temperature: 23.0°C (73°F)
Dewpoint: 9.0°C (48°F) [RH = 41%]
Pressure (altimeter): 29.77 inches Hg (1008.2 mb)
[Sea-level pressure: 1007.6 mb]
Winds: from the S (170 degrees) at 6 MPH (5 knots; 2.6 m/s)
Visibility: 9 miles (14 km)
Ceiling: at least 12,000 feet AGL
Clouds: sky clear below 12,000 feet AGL
Weather: no significant weather observed at this time

METAR text: CYLW 181700Z AUTO 15004KT 100V200 9SM CLR 22/08 A2978 RMK SLP081 DENSITY ALT 2600FT
Conditions at: CYLW (KELOWNA APT , BC, CA) observed 1700 UTC 18 August 2019
Temperature: 22.0°C (72°F)
Dewpoint: 8.0°C (46°F) [RH = 41%]
Pressure (altimeter): 29.78 inches Hg (1008.5 mb)
[Sea-level pressure: 1008.1 mb]
Winds: from the SSE (150 degrees) at 5 MPH (4 knots; 2.1 m/s)
Visibility: 9 miles (14 km)
Ceiling: at least 12,000 feet AGL
Clouds: sky clear below 12,000 feet AGL
Weather: no significant weather observed at this time

METAR text: CYLW 181600Z AUTO 21004KT 9SM CLR 20/11 A2978 RMK SLP082 DENSITY ALT 2400FT
Conditions at: CYLW (KELOWNA APT , BC, CA) observed 1600 UTC 18 August 2019
Temperature: 20.0°C (68°F)
Dewpoint: 11.0°C (52°F) [RH = 56%]
Pressure (altimeter): 29.78 inches Hg (1008.5 mb)
[Sea-level pressure: 1008.2 mb]
Winds: from the SSW (210 degrees) at 5 MPH (4 knots; 2.1 m/s)
Visibility: 9 miles (14 km)
Ceiling: at least 12,000 feet AGL
Clouds: sky clear below 12,000 feet AGL
Weather: no significant weather observed at this time

METAR text: CYLW 181500Z AUTO VRB02KT 9SM CLR 16/10 A2979 RMK SLP087 DENSITY ALT 1900FT
Conditions at: CYLW (KELOWNA APT , BC, CA) observed 1500 UTC 18 August 2019
Temperature: 16.0°C (61°F)
Dewpoint: 10.0°C (50°F) [RH = 68%]
Pressure (altimeter): 29.79 inches Hg (1008.9 mb)
[Sea-level pressure: 1008.7 mb]
Winds: variable direction winds at 2 MPH (2 knots; 1.0 m/s)
Visibility: 9 miles (14 km)
Ceiling: at least 12,000 feet AGL
Clouds: sky clear below 12,000 feet AGL
Weather: no significant weather observed at this time

METAR text: CYLW 181400Z AUTO VRB02KT 9SM CLR 11/10 A2980 RMK SLP090
Conditions at: CYLW (KELOWNA APT , BC, CA) observed 1400 UTC 18 August 2019
Temperature: 11.0°C (52°F)
Dewpoint: 10.0°C (50°F) [RH = 94%]
Pressure (altimeter): 29.80 inches Hg (1009.2 mb)
[Sea-level pressure: 1009.0 mb]
Winds: variable direction winds at 2 MPH (2 knots; 1.0 m/s)
Visibility: 9 miles (14 km)
Ceiling: at least 12,000 feet AGL
Clouds: sky clear below 12,000 feet AGL
Weather: no significant weather observed at this time

METAR text: CYLW 181300Z AUTO VRB02KT 9SM CLR 11/09 A2979 RMK SLP087
Conditions at: CYLW (KELOWNA APT , BC, CA) observed 1300 UTC 18 August 2019
Temperature: 11.0°C (52°F)
Dewpoint: 9.0°C (48°F) [RH = 87%]
Pressure (altimeter): 29.79 inches Hg (1008.9 mb)
[Sea-level pressure: 1008.7 mb]
Winds: variable direction winds at 2 MPH (2 knots; 1.0 m/s)
Visibility: 9 miles (14 km)
Ceiling: at least 12,000 feet AGL
Clouds: sky clear below 12,000 feet AGL
Weather: no significant weather observed at this time

METAR text: CYLW 181200Z AUTO 00000KT 9SM CLR 12/09 A2979 RMK SLP086
Conditions at: CYLW (KELOWNA APT , BC, CA) observed 1200 UTC 18 August 2019
Temperature: 12.0°C (54°F)
Dewpoint: 9.0°C (48°F) [RH = 82%]
Pressure (altimeter): 29.79 inches Hg (1008.9 mb)
[Sea-level pressure: 1008.6 mb]
Winds: calm
Visibility: 9 miles (14 km)
Ceiling: at least 12,000 feet AGL
Clouds: sky clear below 12,000 feet AGL
Weather: no significant weather observed at this time

METAR text: CYLW 181100Z AUTO 23002KT 9SM CLR 14/09 A2980 RMK SLP088 DENSITY ALT 1700FT
Conditions at: CYLW (KELOWNA APT , BC, CA) observed 1100 UTC 18 August 2019
Temperature: 14.0°C (57°F)
Dewpoint: 9.0°C (48°F) [RH = 72%]
Pressure (altimeter): 29.80 inches Hg (1009.2 mb)
[Sea-level pressure: 1008.8 mb]
Winds: from the SW (230 degrees) at 2 MPH (2 knots; 1.0 m/s)
Visibility: 9 miles (14 km)
Ceiling: at least 12,000 feet AGL
Clouds: sky clear below 12,000 feet AGL
Weather: no significant weather observed at this time

METAR text: CYLW 181000Z AUTO 15007KT 140V210 9SM CLR 16/10 A2980 RMK SLP086 DENSITY ALT 2000FT
Conditions at: CYLW (KELOWNA APT , BC, CA) observed 1000 UTC 18 August 2019
Temperature: 16.0°C (61°F)
Dewpoint: 10.0°C (50°F) [RH = 68%]
Pressure (altimeter): 29.80 inches Hg (1009.2 mb)
[Sea-level pressure: 1008.6 mb]
Winds: from the SSE (150 degrees) at 8 MPH (7 knots; 3.6 m/s)
Visibility: 9 miles (14 km)
Ceiling: at least 12,000 feet AGL
Clouds: sky clear below 12,000 feet AGL
Weather: no significant weather observed at this time

METAR text: CYLW 180900Z AUTO 17007KT 9SM SCT090 14/09 A2979 RMK SLP085 DENSITY ALT 1700FT
Conditions at: CYLW (KELOWNA APT , BC, CA) observed 0900 UTC 18 August 2019
Temperature: 14.0°C (57°F)
Dewpoint: 9.0°C (48°F) [RH = 72%]
Pressure (altimeter): 29.79 inches Hg (1008.9 mb)
[Sea-level pressure: 1008.5 mb]
Winds: from the S (170 degrees) at 8 MPH (7 knots; 3.6 m/s)
Visibility: 9 miles (14 km)
Ceiling: at least 12,000 feet AGL
Clouds: scattered clouds at 9000 feet AGL
Weather: no significant weather observed at this time

METAR text: CYLW 180800Z AUTO 20003KT 140V250 9SM CLR 15/10 A2978 RMK SLP083 DENSITY ALT 1800FT
Conditions at: CYLW (KELOWNA APT , BC, CA) observed 0800 UTC 18 August 2019
Temperature: 15.0°C (59°F)
Dewpoint: 10.0°C (50°F) [RH = 72%]
Pressure (altimeter): 29.78 inches Hg (1008.5 mb)
[Sea-level pressure: 1008.3 mb]
Winds: from the SSW (200 degrees) at 3 MPH (3 knots; 1.5 m/s)
Visibility: 9 miles (14 km)
Ceiling: at least 12,000 feet AGL
Clouds: sky clear below 12,000 feet AGL
Weather: no significant weather observed at this time

METAR text: CYLW 180700Z AUTO 19004KT 9SM CLR 17/10 A2978 RMK SLP083 DENSITY ALT 2000FT
Conditions at: CYLW (KELOWNA APT , BC, CA) observed 0700 UTC 18 August 2019
Temperature: 17.0°C (63°F)
Dewpoint: 10.0°C (50°F) [RH = 63%]
Pressure (altimeter): 29.78 inches Hg (1008.5 mb)
[Sea-level pressure: 1008.3 mb]
Winds: from the S (190 degrees) at 5 MPH (4 knots; 2.1 m/s)
Visibility: 9 miles (14 km)
Ceiling: at least 12,000 feet AGL
Clouds: sky clear below 12,000 feet AGL
Weather: no significant weather observed at this time

METAR text: CYLW 180600Z AUTO 18006KT 9SM CLR 19/09 A2978 RMK SLP080 DENSITY ALT 2300FT
Conditions at: CYLW (KELOWNA APT , BC, CA) observed 0600 UTC 18 August 2019
Temperature: 19.0°C (66°F)
Dewpoint: 9.0°C (48°F) [RH = 52%]
Pressure (altimeter): 29.78 inches Hg (1008.5 mb)
[Sea-level pressure: 1008.0 mb]
Winds: from the S (180 degrees) at 7 MPH (6 knots; 3.1 m/s)
Visibility: 9 miles (14 km)
Ceiling: at least 12,000 feet AGL
Clouds: sky clear below 12,000 feet AGL
Weather: no significant weather observed at this time

METAR text: CYLW 180500Z AUTO 15006KT 120V200 9SM SCT110 20/09 A2978 RMK SLP080 DENSITY ALT 2400FT
Conditions at: CYLW (KELOWNA APT , BC, CA) observed 0500 UTC 18 August 2019
Temperature: 20.0°C (68°F)
Dewpoint: 9.0°C (48°F) [RH = 49%]
Pressure (altimeter): 29.78 inches Hg (1008.5 mb)
[Sea-level pressure: 1008.0 mb]
Winds: from the SSE (150 degrees) at 7 MPH (6 knots; 3.1 m/s)
Visibility: 9 miles (14 km)
Ceiling: at least 12,000 feet AGL
Clouds: scattered clouds at 11000 feet AGL
Weather: no significant weather observed at this time

METAR text: CYLW 180400Z AUTO 18009G18KT 160V230 9SM FEW090 20/09 A2977 RMK SLP080 DENSITY ALT 2500FT
Conditions at: CYLW (KELOWNA APT , BC, CA) observed 0400 UTC 18 August 2019
Temperature: 20.0°C (68°F)
Dewpoint: 9.0°C (48°F) [RH = 49%]
Pressure (altimeter): 29.77 inches Hg (1008.2 mb)
[Sea-level pressure: 1008.0 mb]
Winds: from the S (180 degrees) at 10 MPH (9 knots; 4.6 m/s)
gusting to 21 MPH (18 knots; 9.3 m/s)
Visibility: 9 miles (14 km)
Ceiling: at least 12,000 feet AGL
Clouds: few clouds at 9000 feet AGL
Weather: no significant weather observed at this time

METAR text: CYLW 180300Z AUTO 21013G20KT 9SM CLR 22/08 A2977 RMK SLP078 DENSITY ALT 2600FT
Conditions at: CYLW (KELOWNA APT , BC, CA) observed 0300 UTC 18 August 2019
Temperature: 22.0°C (72°F)
Dewpoint: 8.0°C (46°F) [RH = 41%]
Pressure (altimeter): 29.77 inches Hg (1008.2 mb)
[Sea-level pressure: 1007.8 mb]
Winds: from the SSW (210 degrees) at 15 MPH (13 knots; 6.7 m/s)
gusting to 23 MPH (20 knots; 10.3 m/s)
Visibility: 9 miles (14 km)
Ceiling: at least 12,000 feet AGL
Clouds: sky clear below 12,000 feet AGL
Weather: no significant weather observed at this time

METAR text: CYLW 180200Z AUTO 20009G20KT 9SM FEW085 BKN140 BKN160 23/07 A2977 RMK SLP080 DENSITY ALT 2800FT
Conditions at: CYLW (KELOWNA APT , BC, CA) observed 0200 UTC 18 August 2019
Temperature: 23.0°C (73°F)
Dewpoint: 7.0°C (45°F) [RH = 36%]
Pressure (altimeter): 29.77 inches Hg (1008.2 mb)
[Sea-level pressure: 1008.0 mb]
Winds: from the SSW (200 degrees) at 10 MPH (9 knots; 4.6 m/s)
gusting to 23 MPH (20 knots; 10.3 m/s)
Visibility: 9 miles (14 km)
Ceiling: 14000 feet AGL
Clouds: few clouds at 8500 feet AGL
broken clouds at 14000 feet AGL
broken clouds at 16000 feet AGL
Weather: no significant weather observed at this time

METAR text: CYLW 180145Z AUTO 20012G20KT 9SM FEW085 OVC140 23/07 A2977 RMK WSHFT AT 0132Z SLP080 DENSITY ALT 2800FT
Conditions at: CYLW (KELOWNA APT , BC, CA) observed 0145 UTC 18 August 2019
Temperature: 23.0°C (73°F)
Dewpoint: 7.0°C (45°F) [RH = 36%]
Pressure (altimeter): 29.77 inches Hg (1008.2 mb)
[Sea-level pressure: 1008.0 mb]
Winds: from the SSW (200 degrees) at 14 MPH (12 knots; 6.2 m/s)
gusting to 23 MPH (20 knots; 10.3 m/s)
Visibility: 9 miles (14 km)
Ceiling: 14000 feet AGL
Clouds: few clouds at 8500 feet AGL
overcast cloud deck at 14000 feet AGL
Weather: no significant weather observed at this time

METAR text: CYLW 180100Z AUTO 27014G22KT 9SM OVC140 25/07 A2975 RMK SLP074 DENSITY ALT 3000FT
Conditions at: CYLW (KELOWNA APT , BC, CA) observed 0100 UTC 18 August 2019
Temperature: 25.0°C (77°F)
Dewpoint: 7.0°C (45°F) [RH = 32%]
Pressure (altimeter): 29.75 inches Hg (1007.5 mb)
[Sea-level pressure: 1007.4 mb]
Winds: from the W (270 degrees) at 16 MPH (14 knots; 7.2 m/s)
gusting to 25 MPH (22 knots; 11.3 m/s)
Visibility: 9 miles (14 km)
Ceiling: 14000 feet AGL
Clouds: overcast cloud deck at 14000 feet AGL
Weather: no significant weather observed at this time

METAR text: CYLW 180032Z AUTO 22013G19KT 170V260 9SM SCT130 BKN160 26/08 A2975 RMK SLP072 DENSITY ALT 3100FT
Conditions at: CYLW (KELOWNA APT , BC, CA) observed 0032 UTC 18 August 2019
Temperature: 26.0°C (79°F)
Dewpoint: 8.0°C (46°F) [RH = 32%]
Pressure (altimeter): 29.75 inches Hg (1007.5 mb)
[Sea-level pressure: 1007.2 mb]
Winds: from the SW (220 degrees) at 15 MPH (13 knots; 6.7 m/s)
gusting to 22 MPH (19 knots; 9.8 m/s)
Visibility: 9 miles (14 km)
Ceiling: 16000 feet AGL
Clouds: scattered clouds at 13000 feet AGL
broken clouds at 16000 feet AGL
Weather: no significant weather observed at this time

METAR text: CYLW 180000Z AUTO VRB02KT 9SM SCT110 BKN150 26/08 A2975 RMK SLP074 DENSITY ALT 3100FT
Conditions at: CYLW (KELOWNA APT , BC, CA) observed 0000 UTC 18 August 2019
Temperature: 26.0°C (79°F)
Dewpoint: 8.0°C (46°F) [RH = 32%]
Pressure (altimeter): 29.75 inches Hg (1007.5 mb)
[Sea-level pressure: 1007.4 mb]
Winds: variable direction winds at 2 MPH (2 knots; 1.0 m/s)
Visibility: 9 miles (14 km)
Ceiling: 15000 feet AGL
Clouds: scattered clouds at 11000 feet AGL
broken clouds at 15000 feet AGL
Weather: no significant weather observed at this time

METAR text: CYLW 172300Z AUTO 16005KT 9SM CLR 25/08 A2977 RMK SLP081 DENSITY ALT 3000FT
Conditions at: CYLW (KELOWNA APT , BC, CA) observed 2300 UTC 17 August 2019
Temperature: 25.0°C (77°F)
Dewpoint: 8.0°C (46°F) [RH = 34%]
Pressure (altimeter): 29.77 inches Hg (1008.2 mb)
[Sea-level pressure: 1008.1 mb]
Winds: from the SSE (160 degrees) at 6 MPH (5 knots; 2.6 m/s)
Visibility: 9 miles (14 km)
Ceiling: at least 12,000 feet AGL
Clouds: sky clear below 12,000 feet AGL
Weather: no significant weather observed at this time

METAR text: CYLW 172200Z AUTO 19008KT 110V200 9SM CLR 24/07 A2980 RMK SLP091 DENSITY ALT 2900FT
Conditions at: CYLW (KELOWNA APT , BC, CA) observed 2200 UTC 17 August 2019
Temperature: 24.0°C (75°F)
Dewpoint: 7.0°C (45°F) [RH = 34%]
Pressure (altimeter): 29.80 inches Hg (1009.2 mb)
[Sea-level pressure: 1009.1 mb]
Winds: from the S (190 degrees) at 9 MPH (8 knots; 4.1 m/s)
Visibility: 9 miles (14 km)
Ceiling: at least 12,000 feet AGL
Clouds: sky clear below 12,000 feet AGL
Weather: no significant weather observed at this time

METAR text: CYLW 172100Z AUTO 14006KT 120V200 9SM CLR 24/07 A2984 RMK SLP101 DENSITY ALT 2900FT
Conditions at: CYLW (KELOWNA APT , BC, CA) observed 2100 UTC 17 August 2019
Temperature: 24.0°C (75°F)
Dewpoint: 7.0°C (45°F) [RH = 34%]
Pressure (altimeter): 29.84 inches Hg (1010.6 mb)
[Sea-level pressure: 1010.1 mb]
Winds: from the SE (140 degrees) at 7 MPH (6 knots; 3.1 m/s)
Visibility: 9 miles (14 km)
Ceiling: at least 12,000 feet AGL
Clouds: sky clear below 12,000 feet AGL
Weather: no significant weather observed at this time

METAR text: CYLW 172000Z AUTO 17003KT 050V220 9SM CLR 24/07 A2986 RMK SLP109 DENSITY ALT 2800FT
Conditions at: CYLW (KELOWNA APT , BC, CA) observed 2000 UTC 17 August 2019
Temperature: 24.0°C (75°F)
Dewpoint: 7.0°C (45°F) [RH = 34%]
Pressure (altimeter): 29.86 inches Hg (1011.3 mb)
[Sea-level pressure: 1010.9 mb]
Winds: from the S (170 degrees) at 3 MPH (3 knots; 1.5 m/s)
Visibility: 9 miles (14 km)
Ceiling: at least 12,000 feet AGL
Clouds: sky clear below 12,000 feet AGL
Weather: no significant weather observed at this time

METAR text: CYLW 171900Z AUTO 16003KT 120V250 9SM CLR 23/06 A2988 RMK SLP115 DENSITY ALT 2600FT
Conditions at: CYLW (KELOWNA APT , BC, CA) observed 1900 UTC 17 August 2019
Temperature: 23.0°C (73°F)
Dewpoint: 6.0°C (43°F) [RH = 33%]
Pressure (altimeter): 29.88 inches Hg (1011.9 mb)
[Sea-level pressure: 1011.5 mb]
Winds: from the SSE (160 degrees) at 3 MPH (3 knots; 1.5 m/s)
Visibility: 9 miles (14 km)
Ceiling: at least 12,000 feet AGL
Clouds: sky clear below 12,000 feet AGL
Weather: no significant weather observed at this time

METAR text: CYLW 171800Z AUTO 19004KT 140V230 9SM CLR 22/06 A2989 RMK SLP120 DENSITY ALT 2500FT
Conditions at: CYLW (KELOWNA APT , BC, CA) observed 1800 UTC 17 August 2019
Temperature: 22.0°C (72°F)
Dewpoint: 6.0°C (43°F) [RH = 35%]
Pressure (altimeter): 29.89 inches Hg (1012.3 mb)
[Sea-level pressure: 1012.0 mb]
Winds: from the S (190 degrees) at 5 MPH (4 knots; 2.1 m/s)
Visibility: 9 miles (14 km)
Ceiling: at least 12,000 feet AGL
Clouds: sky clear below 12,000 feet AGL
Weather: no significant weather observed at this time

METAR text: CYLW 171700Z AUTO 19006KT 9SM CLR 21/08 A2991 RMK SLP124 DENSITY ALT 2400FT
Conditions at: CYLW (KELOWNA APT , BC, CA) observed 1700 UTC 17 August 2019
Temperature: 21.0°C (70°F)
Dewpoint: 8.0°C (46°F) [RH = 43%]
Pressure (altimeter): 29.91 inches Hg (1013.0 mb)
[Sea-level pressure: 1012.4 mb]
Winds: from the S (190 degrees) at 7 MPH (6 knots; 3.1 m/s)
Visibility: 9 miles (14 km)
Ceiling: at least 12,000 feet AGL
Clouds: sky clear below 12,000 feet AGL
Weather: no significant weather observed at this time

METAR text: CYLW 171600Z AUTO 19003KT 9SM CLR 19/10 A2991 RMK SLP126 DENSITY ALT 2100FT
Conditions at: CYLW (KELOWNA APT , BC, CA) observed 1600 UTC 17 August 2019
Temperature: 19.0°C (66°F)
Dewpoint: 10.0°C (50°F) [RH = 56%]
Pressure (altimeter): 29.91 inches Hg (1013.0 mb)
[Sea-level pressure: 1012.6 mb]
Winds: from the S (190 degrees) at 3 MPH (3 knots; 1.5 m/s)
Visibility: 9 miles (14 km)
Ceiling: at least 12,000 feet AGL
Clouds: sky clear below 12,000 feet AGL
Weather: no significant weather observed at this time

Forecast for: CYLW (KELOWNA APT , BC, CA)
Text: TAF CYLW 190038Z 1901/1913 16008KT P6SM FEW080 FEW250
Forecast period: 0100 to 0400 UTC 19 August 2019
Forecast type: FROM: standard forecast or significant change
Winds: from the SSE (160 degrees) at 9 MPH (8 knots; 4.1 m/s)
Visibility: 6 or more miles 10+ km)
Ceiling: at least 12,000 feet AGL
Clouds: few clouds at 8000 feet AGL
few clouds at 25000 feet AGL
Weather: no significant weather forecast for this period
Text: BECMG 1904/1906 VRB03KT RMK FCST BASED ON AUTO OBS. NXT FCST BY 190700Z
Forecast period: 0400 to 1300 UTC 19 August 2019
Forecast type: BECOMING: Conditions expected to become as follows by 0600 UTC 19 August 2019
Winds: variable direction winds at 3 MPH (3 knots; 1.5 m/s)
Visibility: 6 or more miles 10+ km)
Ceiling: at least 12,000 feet AGL
Clouds: few clouds at 8000 feet AGL
few clouds at 25000 feet AGL
Weather: no significant weather forecast for this period